Aviation Digital Data Service (ADDS)

Output produced by METARs form (1225 UTC 30 January 2015)
found at http://www.aviationweather.gov/adds/metars/
 
KWWD 301215Z AUTO 30009G14KT 10SM BKN065 OVC075 03/M03 A2988 RMK AO1